Time;durP1;ratioP1;P1;durP2;ratioP2;P2;SDS_P1;SDS_P2;PMS_P1;PMS_P2;Temp;Humidity;BMP_temperature;BMP_pressure;BME280_temperature;BME280_humidity;BME280_pressure;Samples;Min_cycle;Max_cycle;Signal;HPM_P1;HPM_P2
2021/03/14 05:00:28;;;;;;;5.45;3.85;;;4.40;99.90;;;;;;5910895;23;20192;-70
2021/03/14 05:02:58;;;;;;;6.38;3.05;;;4.40;99.90;;;;;;4905756;29;20718;-71
2021/03/14 05:05:25;;;;;;;7.10;3.53;;;4.40;99.90;;;;;;4918363;29;20226;-71
2021/03/14 05:07:53;;;;;;;7.30;3.88;;;4.40;99.90;;;;;;4918439;29;20229;-71
2021/03/14 05:10:22;;;;;;;9.70;4.05;;;4.40;99.90;;;;;;4918841;29;20261;-71
2021/03/14 05:12:50;;;;;;;6.97;3.85;;;4.50;99.90;;;;;;4917672;29;20659;-71
2021/03/14 05:15:17;;;;;;;3.80;3.50;;;4.50;99.90;;;;;;4918659;29;20706;-71
2021/03/14 05:17:48;;;;;;;5.25;3.40;;;4.50;99.90;;;;;;4917261;29;20305;-72
2021/03/14 05:20:16;;;;;;;4.15;3.50;;;4.50;99.90;;;;;;4918519;29;20250;-71
2021/03/14 05:22:44;;;;;;;4.35;3.80;;;4.60;99.90;;;;;;4917965;29;20683;-71
2021/03/14 05:25:12;;;;;;;7.55;3.55;;;4.60;99.90;;;;;;4904852;29;20250;-71
2021/03/14 05:27:42;;;;;;;7.28;3.25;;;4.60;99.90;;;;;;4917984;29;20597;-71
2021/03/14 05:30:09;;;;;;;4.70;3.25;;;4.60;99.90;;;;;;4918636;29;20570;-71
2021/03/14 05:32:36;;;;;;;5.68;3.60;;;4.70;99.90;;;;;;4916421;29;20217;-71
2021/03/14 05:35:03;;;;;;;10.68;3.85;;;4.70;99.90;;;;;;4918274;29;20203;-71
2021/03/14 05:37:30;;;;;;;5.25;3.40;;;4.70;99.90;;;;;;4918668;29;20286;-71
2021/03/14 05:39:56;;;;;;;3.05;2.85;;;4.70;99.90;;;;;;4917496;29;20215;-71
2021/03/14 05:42:22;;;;;;;8.85;3.08;;;4.70;99.90;;;;;;4917573;29;20727;-71
2021/03/14 05:44:49;;;;;;;7.47;3.80;;;4.70;99.90;;;;;;4918394;29;20321;-71
2021/03/14 05:47:15;;;;;;;5.85;3.70;;;4.70;99.90;;;;;;4917356;29;20206;-71
2021/03/14 05:49:42;;;;;;;6.63;3.08;;;4.80;99.90;;;;;;4917326;29;20210;-71
2021/03/14 05:52:11;;;;;;;7.47;3.25;;;4.80;99.90;;;;;;4917486;29;20526;-72
2021/03/14 05:54:39;;;;;;;5.88;4.07;;;4.80;99.90;;;;;;4917687;29;20214;-72
2021/03/14 05:57:06;;;;;;;8.38;3.65;;;4.80;99.90;;;;;;4918053;29;20654;-71
2021/03/14 05:59:32;;;;;;;9.02;3.50;;;4.80;99.90;;;;;;4917694;29;20207;-71
2021/03/14 06:02:01;;;;;;;3.85;3.20;;;4.80;99.90;;;;;;4908488;29;20238;-70
2021/03/14 06:04:30;;;;;;;7.13;3.20;;;4.90;99.90;;;;;;4917568;29;20223;-72
2021/03/14 06:06:56;;;;;;;5.72;3.50;;;4.90;99.90;;;;;;4918833;29;20271;-71
2021/03/14 06:09:23;;;;;;;5.88;3.75;;;4.90;99.90;;;;;;4918293;29;20849;-71
2021/03/14 06:11:50;;;;;;;9.75;3.60;;;4.90;99.90;;;;;;4919178;29;20230;-71
2021/03/14 06:14:16;;;;;;;6.18;3.63;;;4.90;99.90;;;;;;4918264;29;20207;-70
2021/03/14 06:16:42;;;;;;;8.40;3.65;;;4.90;99.90;;;;;;4918724;29;20207;-71
2021/03/14 06:19:09;;;;;;;9.43;3.90;;;5.00;99.90;;;;;;4916940;29;20215;-71
2021/03/14 06:21:35;;;;;;;6.28;4.07;;;5.00;99.90;;;;;;4918483;29;20226;-71
2021/03/14 06:24:04;;;;;;;11.00;4.20;;;5.00;99.90;;;;;;4917744;29;20202;-71
2021/03/14 06:26:42;;;;;;;7.97;3.40;;;5.00;99.90;;;;;;4918715;29;20262;-71
2021/03/14 06:29:27;;;;;;;8.02;3.38;;;5.00;99.90;;;;;;4917577;29;20258;-71
2021/03/14 06:31:56;;;;;;;6.38;4.05;;;5.10;99.90;;;;;;4917816;29;20230;-71
2021/03/14 06:34:31;;;;;;;7.03;3.63;;;5.10;99.90;;;;;;4916821;29;20203;-71
2021/03/14 06:37:08;;;;;;;6.30;3.47;;;5.10;99.90;;;;;;4918308;29;20217;-71
2021/03/14 06:39:36;;;;;;;9.02;4.25;;;5.10;99.90;;;;;;4917659;29;20213;-71
2021/03/14 06:42:04;;;;;;;5.45;3.63;;;5.10;99.90;;;;;;4918227;29;20226;-69
2021/03/14 06:44:32;;;;;;;7.30;6.00;;;5.10;99.90;;;;;;4916815;29;20218;-71
2021/03/14 06:46:59;;;;;;;6.40;3.78;;;5.20;99.90;;;;;;4918905;29;20292;-71
2021/03/14 06:49:27;;;;;;;6.43;4.28;;;5.20;99.90;;;;;;4916768;29;20641;-70
2021/03/14 06:51:55;;;;;;;5.70;3.63;;;5.20;99.90;;;;;;4910449;29;20290;-70
2021/03/14 06:54:27;;;;;;;4.53;3.58;;;5.20;99.90;;;;;;4917461;29;20214;-70
2021/03/14 06:57:01;;;;;;;5.80;4.20;;;5.20;99.90;;;;;;4917618;29;20208;-71
2021/03/14 06:59:28;;;;;;;6.43;4.25;;;5.20;99.90;;;;;;4918200;29;20315;-71
2021/03/14 07:01:57;;;;;;;7.47;4.05;;;5.20;99.90;;;;;;4917795;29;20595;-70
2021/03/14 07:04:32;;;;;;;9.70;4.97;;;5.30;99.90;;;;;;4916872;29;20627;-70
2021/03/14 07:06:58;;;;;;;3.85;3.20;;;5.30;99.90;;;;;;4918328;29;20230;-70
2021/03/14 07:09:25;;;;;;;7.07;3.25;;;5.30;99.90;;;;;;4917218;29;20254;-70
2021/03/14 07:11:51;;;;;;;9.23;4.43;;;5.30;99.90;;;;;;4917370;29;20624;-71
2021/03/14 07:14:20;;;;;;;11.27;4.20;;;5.30;99.90;;;;;;4917983;29;20218;-71
2021/03/14 07:16:48;;;;;;;7.05;4.40;;;5.30;99.90;;;;;;4919765;29;20214;-71
2021/03/14 07:19:17;;;;;;;8.25;4.18;;;5.30;99.90;;;;;;4918006;29;20222;-70
2021/03/14 07:21:43;;;;;;;9.43;3.50;;;5.30;99.90;;;;;;4917441;29;20252;-69
2021/03/14 07:24:13;;;;;;;7.32;3.63;;;5.30;99.90;;;;;;4915498;29;20210;-70
2021/03/14 07:26:45;;;;;;;12.38;4.60;;;5.40;99.90;;;;;;4916347;29;20227;-70
2021/03/14 07:29:11;;;;;;;5.93;3.40;;;5.40;99.90;;;;;;4916040;29;20294;-70
2021/03/14 07:31:39;;;;;;;8.55;5.05;;;5.40;99.90;;;;;;4916417;29;20242;-70
2021/03/14 07:34:06;;;;;;;9.70;3.80;;;5.40;99.90;;;;;;4915762;29;20235;-70
2021/03/14 07:36:33;;;;;;;7.97;3.90;;;5.40;99.90;;;;;;4916631;29;20222;-70
2021/03/14 07:38:59;;;;;;;7.00;4.13;;;5.40;99.90;;;;;;4916195;29;20214;-71
2021/03/14 07:41:27;;;;;;;9.05;4.43;;;5.50;99.90;;;;;;4915741;29;20226;-70
2021/03/14 07:43:53;;;;;;;7.70;3.95;;;5.50;99.90;;;;;;4904354;29;20283;-70
2021/03/14 07:46:23;;;;;;;6.90;3.08;;;5.50;99.90;;;;;;4917338;29;20254;-70
2021/03/14 07:48:51;;;;;;;4.88;3.85;;;5.50;99.90;;;;;;4916168;29;20213;-71
2021/03/14 07:51:19;;;;;;;7.18;2.90;;;5.50;99.90;;;;;;4916338;29;20432;-71
2021/03/14 07:53:46;;;;;;;4.60;3.70;;;5.50;99.90;;;;;;4897344;29;20207;-71
2021/03/14 07:56:12;;;;;;;10.15;3.97;;;5.60;99.90;;;;;;4897211;29;20608;-71
2021/03/14 07:58:38;;;;;;;5.57;4.13;;;5.60;99.90;;;;;;4897516;29;20211;-71
2021/03/14 08:01:27;;;;;;;4.15;3.45;;;5.60;99.90;;;;;;4897220;29;20247;-71
2021/03/14 08:03:54;;;;;;;11.00;4.32;;;5.60;99.90;;;;;;4901278;29;20463;-70
2021/03/14 08:06:51;;;;;;;4.63;3.90;;;5.60;99.90;;;;;;4916237;29;20236;-71
2021/03/14 08:09:42;;;;;;;4.32;3.40;;;5.70;99.90;;;;;;4916228;29;20297;-71
2021/03/14 08:12:19;;;;;;;5.10;3.65;;;5.70;99.90;;;;;;4904354;29;20727;-70
2021/03/14 08:14:46;;;;;;;3.50;3.20;;;5.70;99.90;;;;;;4897435;29;20199;-70
2021/03/14 08:17:17;;;;;;;7.97;3.95;;;5.80;99.90;;;;;;4906843;29;20202;-70
2021/03/14 08:19:44;;;;;;;5.75;3.60;;;5.80;99.90;;;;;;4916211;29;20217;-71
2021/03/14 08:22:42;;;;;;;8.13;3.95;;;5.80;99.90;;;;;;4915773;29;20281;-71
2021/03/14 08:25:19;;;;;;;5.57;3.30;;;5.80;99.90;;;;;;4916324;29;20211;-70
2021/03/14 08:27:46;;;;;;;6.78;3.85;;;5.90;99.90;;;;;;4914873;29;20210;-71
2021/03/14 08:30:46;;;;;;;4.32;3.92;;;5.90;99.90;;;;;;4915710;29;20233;-71
2021/03/14 08:33:41;;;;;;;5.30;3.80;;;5.80;99.90;;;;;;4914886;29;20302;-71
2021/03/14 08:36:10;;;;;;;12.18;4.15;;;5.80;99.90;;;;;;4913335;29;20255;-71
2021/03/14 08:38:47;;;;;;;4.00;3.08;;;5.90;99.90;;;;;;4915823;29;20210;-71
2021/03/14 08:41:33;;;;;;;7.22;6.18;;;5.90;99.90;;;;;;4897077;29;20242;-71
2021/03/14 08:44:02;;;;;;;12.93;7.70;;;5.90;99.90;;;;;;4910568;29;20635;-71
2021/03/14 08:47:05;;;;;;;4.45;3.25;;;6.00;99.90;;;;;;4899877;29;20285;-71
2021/03/14 08:49:39;;;;;;;6.70;3.40;;;6.00;99.90;;;;;;4900363;29;20627;-71
2021/03/14 08:52:07;;;;;;;4.63;4.07;;;6.10;99.90;;;;;;4915815;29;20246;-72
2021/03/14 08:54:36;;;;;;;3.63;3.33;;;6.20;99.90;;;;;;4897114;29;20226;-71
2021/03/14 08:57:04;;;;;;;4.32;2.80;;;6.30;99.90;;;;;;4903977;29;20570;-71
2021/03/14 08:59:31;;;;;;;19.80;12.18;;;6.30;99.90;;;;;;4911880;29;20207;-71
2021/03/14 09:01:59;;;;;;;8.05;4.18;;;6.40;99.90;;;;;;4908947;29;20239;-71
2021/03/14 09:04:29;;;;;;;9.43;3.17;;;6.50;99.90;;;;;;4914533;29;20223;-71
2021/03/14 09:07:03;;;;;;;6.07;3.00;;;6.60;99.90;;;;;;4915220;29;20230;-71
2021/03/14 09:09:29;;;;;;;4.80;2.97;;;6.80;99.90;;;;;;4916752;29;20215;-71
2021/03/14 09:11:58;;;;;;;4.82;4.00;;;6.80;99.90;;;;;;4918339;29;20226;-71
2021/03/14 09:14:37;;;;;;;3.80;2.47;;;7.00;99.90;;;;;;4918539;29;20217;-72
2021/03/14 09:17:08;;;;;;;6.95;3.58;;;7.00;99.90;;;;;;4918593;29;20288;-72
2021/03/14 09:19:37;;;;;;;3.05;2.80;;;7.20;99.90;;;;;;4915627;29;20214;-72
2021/03/14 09:22:06;;;;;;;3.58;3.00;;;7.20;99.90;;;;;;4909810;29;20227;-74
2021/03/14 09:24:38;;;;;;;6.78;6.25;;;7.20;99.90;;;;;;4918571;29;20213;-73
2021/03/14 09:27:08;;;;;;;4.30;3.10;;;7.30;99.90;;;;;;4918619;29;20230;-72
2021/03/14 09:29:37;;;;;;;2.80;2.28;;;7.40;99.90;;;;;;4919098;29;20361;-72
2021/03/14 09:32:13;;;;;;;3.08;2.50;;;7.40;99.90;;;;;;4919504;29;20282;-72
2021/03/14 09:34:39;;;;;;;4.13;2.55;;;7.50;99.90;;;;;;4917295;29;20225;-73
2021/03/14 09:37:06;;;;;;;3.63;2.47;;;7.60;99.90;;;;;;4900381;29;20211;-74
2021/03/14 09:39:35;;;;;;;3.55;2.75;;;7.70;99.90;;;;;;4899612;29;20227;-72
2021/03/14 09:42:01;;;;;;;4.07;2.55;;;7.80;99.90;;;;;;4899579;29;20602;-72
2021/03/14 09:44:28;;;;;;;2.97;2.20;;;7.90;99.90;;;;;;4899481;29;20215;-73
2021/03/14 09:46:55;;;;;;;2.53;1.58;;;8.00;99.90;;;;;;4899566;29;20227;-73
2021/03/14 09:49:22;;;;;;;5.35;2.40;;;7.90;99.90;;;;;;4904925;29;20222;-73
2021/03/14 09:51:53;;;;;;;2.80;1.98;;;8.00;99.90;;;;;;4914225;29;20246;-72
2021/03/14 09:54:19;;;;;;;8.80;5.88;;;8.20;99.90;;;;;;4917814;29;20548;-72
2021/03/14 09:56:56;;;;;;;5.10;3.20;;;8.30;99.90;;;;;;4917609;29;20582;-72
2021/03/14 09:59:25;;;;;;;10.07;2.90;;;8.40;99.90;;;;;;4917895;29;20214;-73
2021/03/14 10:01:55;;;;;;;5.90;2.25;;;8.40;99.90;;;;;;4905185;29;20302;-73
2021/03/14 10:04:21;;;;;;;2.85;2.10;;;8.40;99.90;;;;;;4898483;29;20223;-72
2021/03/14 10:06:48;;;;;;;4.35;2.00;;;8.40;99.90;;;;;;4899196;29;20703;-72
2021/03/14 10:09:22;;;;;;;2.13;2.00;;;8.30;99.90;;;;;;4916332;29;20207;-72
2021/03/14 10:11:49;;;;;;;7.57;2.88;;;8.40;99.90;;;;;;4918433;29;20313;-74
2021/03/14 10:14:17;;;;;;;3.35;1.90;;;8.40;99.90;;;;;;4917454;29;20203;-72
2021/03/14 10:16:43;;;;;;;2.05;1.95;;;8.40;99.90;;;;;;4917094;29;20258;-72
2021/03/14 10:19:11;;;;;;;3.85;1.80;;;8.50;99.90;;;;;;4910327;29;20233;-72
2021/03/14 10:21:44;;;;;;;3.08;2.45;;;8.50;99.90;;;;;;4917605;29;20235;-72
2021/03/14 10:24:21;;;;;;;1.55;1.42;;;8.60;99.90;;;;;;4916440;29;20689;-72
2021/03/14 10:26:55;;;;;;;7.20;1.90;;;8.60;99.90;;;;;;4914612;29;20245;-71
2021/03/14 10:29:22;;;;;;;4.10;2.45;;;8.50;99.90;;;;;;4917239;29;20274;-72
2021/03/14 10:31:49;;;;;;;4.07;1.90;;;8.40;99.90;;;;;;4917623;29;20234;-70
2021/03/14 10:34:21;;;;;;;4.13;2.10;;;8.30;99.90;;;;;;4915762;29;20218;-71
2021/03/14 10:36:47;;;;;;;2.67;1.85;;;8.30;99.90;;;;;;4913791;29;20635;-70
2021/03/14 10:39:14;;;;;;;2.05;1.60;;;8.30;99.90;;;;;;4898622;29;20215;-72
2021/03/14 10:41:46;;;;;;;7.00;2.10;;;8.30;99.90;;;;;;4912296;29;20226;-71
2021/03/14 10:44:12;;;;;;;6.78;2.20;;;8.20;99.90;;;;;;4916948;29;20306;-71
2021/03/14 10:46:40;;;;;;;2.80;2.13;;;8.20;99.90;;;;;;4916561;29;20717;-71
2021/03/14 10:49:08;;;;;;;3.53;2.75;;;8.30;99.90;;;;;;4916634;29;20198;-71
2021/03/14 10:51:36;;;;;;;2.60;2.45;;;8.50;99.90;;;;;;4915972;29;20230;-71
2021/03/14 10:54:07;;;;;;;4.70;2.50;;;8.60;99.90;;;;;;4912523;29;20678;-71
2021/03/14 10:56:36;;;;;;;5.63;3.30;;;8.70;99.90;;;;;;4913875;29;20258;-71
2021/03/14 10:59:03;;;;;;;6.78;1.80;;;8.80;99.90;;;;;;4916899;29;20286;-71
2021/03/14 11:01:37;;;;;;;7.18;4.28;;;8.80;99.90;;;;;;4916336;29;20239;-71
2021/03/14 11:04:05;;;;;;;3.53;2.05;;;8.80;99.90;;;;;;4915860;29;20202;-71
2021/03/14 11:06:32;;;;;;;1.98;1.88;;;8.90;99.90;;;;;;4914858;29;20230;-72
2021/03/14 11:09:02;;;;;;;8.80;2.00;;;8.90;99.90;;;;;;4916778;29;20213;-72
2021/03/14 11:11:42;;;;;;;2.42;1.42;;;9.10;99.90;;;;;;4916741;29;20317;-72
2021/03/14 11:14:34;;;;;;;3.45;2.05;;;9.10;99.90;;;;;;4916609;29;20515;-71
2021/03/14 11:17:12;;;;;;;3.97;2.10;;;9.20;99.90;;;;;;4917015;29;20280;-71
2021/03/14 11:19:40;;;;;;;6.88;1.50;;;9.30;99.90;;;;;;4916819;29;20225;-72
2021/03/14 11:22:07;;;;;;;3.60;2.22;;;9.30;99.90;;;;;;4916586;29;20237;-73
2021/03/14 11:24:34;;;;;;;1.60;1.50;;;9.30;99.90;;;;;;4916828;29;20218;-73
2021/03/14 11:27:01;;;;;;;2.70;1.33;;;9.30;99.90;;;;;;4917218;29;20226;-73
2021/03/14 11:29:28;;;;;;;2.40;1.50;;;9.30;99.90;;;;;;4916847;29;20233;-73
2021/03/14 11:31:54;;;;;;;2.22;1.67;;;9.30;99.90;;;;;;4917166;29;20272;-72
2021/03/14 11:34:21;;;;;;;2.13;1.92;;;9.20;99.90;;;;;;4916861;29;20213;-72
2021/03/14 11:36:47;;;;;;;5.93;2.05;;;9.20;99.90;;;;;;4917022;29;20209;-73
2021/03/14 11:39:13;;;;;;;2.28;1.95;;;9.20;99.90;;;;;;4916351;29;20295;-72
2021/03/14 11:41:41;;;;;;;3.80;2.20;;;9.20;99.90;;;;;;4916990;29;20635;-74
2021/03/14 11:44:07;;;;;;;5.95;1.73;;;9.20;99.90;;;;;;4915978;29;20214;-74
2021/03/14 11:46:34;;;;;;;2.00;1.70;;;9.20;99.90;;;;;;4916764;29;20222;-74
2021/03/14 11:49:01;;;;;;;2.85;1.50;;;9.10;99.90;;;;;;4916322;29;20217;-74
2021/03/14 11:51:27;;;;;;;4.20;1.55;;;9.10;99.90;;;;;;4916494;29;20267;-75
2021/03/14 11:53:54;;;;;;;3.50;1.00;;;9.10;99.90;;;;;;4915997;29;20202;-74
2021/03/14 11:56:22;;;;;;;3.42;1.08;;;9.00;99.90;;;;;;4917143;29;20207;-75
2021/03/14 11:58:49;;;;;;;4.47;3.20;;;9.10;99.90;;;;;;4916422;29;20211;-73
2021/03/14 12:01:15;;;;;;;1.65;1.00;;;9.20;99.90;;;;;;4916594;29;20234;-73
2021/03/14 12:03:41;;;;;;;0.90;0.90;;;9.30;99.90;;;;;;4915534;29;20207;-73
2021/03/14 12:06:08;;;;;;;1.10;1.10;;;9.50;99.90;;;;;;4916103;29;20674;-73
2021/03/14 12:08:34;;;;;;;0.98;0.90;;;9.50;99.90;;;;;;4917008;29;20221;-74
2021/03/14 12:11:03;;;;;;;3.95;1.50;;;9.60;99.90;;;;;;4916569;29;20577;-74
2021/03/14 12:13:29;;;;;;;4.00;1.60;;;9.60;99.90;;;;;;4916139;29;20309;-73
2021/03/14 12:15:56;;;;;;;15.65;9.05;;;9.50;99.90;;;;;;4916756;29;20207;-73
2021/03/14 12:18:22;;;;;;;3.83;2.28;;;9.50;99.90;;;;;;4916006;29;20211;-74
2021/03/14 12:20:49;;;;;;;2.90;2.17;;;9.50;99.90;;;;;;4916659;29;20233;-74
2021/03/14 12:23:17;;;;;;;1.92;1.77;;;9.40;99.90;;;;;;4915896;29;20640;-73
2021/03/14 12:25:43;;;;;;;2.03;2.03;;;9.30;99.90;;;;;;4916413;29;20615;-72
2021/03/14 12:28:09;;;;;;;4.53;1.70;;;9.20;99.90;;;;;;4916092;29;20548;-72
2021/03/14 12:30:35;;;;;;;4.88;1.50;;;9.10;99.90;;;;;;4916047;29;20231;-72
2021/03/14 12:33:03;;;;;;;1.55;1.45;;;9.00;99.90;;;;;;4915482;29;20214;-73
2021/03/14 12:35:29;;;;;;;0.82;0.82;;;8.90;99.90;;;;;;4916583;29;20206;-73
2021/03/14 12:37:56;;;;;;;4.18;1.63;;;8.80;99.90;;;;;;4916593;29;20206;-73
2021/03/14 12:40:22;;;;;;;1.30;1.30;;;8.60;99.90;;;;;;4916208;29;20210;-72
2021/03/14 12:42:49;;;;;;;0.65;0.65;;;8.40;99.90;;;;;;4919017;29;20214;-72
2021/03/14 12:45:15;;;;;;;1.60;1.50;;;8.30;99.90;;;;;;4919933;29;20266;-72
2021/03/14 12:47:41;;;;;;;0.90;0.90;;;8.30;99.90;;;;;;4919279;29;20214;-72
2021/03/14 12:50:10;;;;;;;1.48;0.80;;;8.20;99.90;;;;;;4920449;29;20215;-73
2021/03/14 12:52:36;;;;;;;4.32;3.67;;;8.30;99.90;;;;;;4919991;29;20218;-73
2021/03/14 12:55:03;;;;;;;1.00;0.70;;;8.40;99.90;;;;;;4919440;29;20218;-73
2021/03/14 12:57:29;;;;;;;1.83;0.85;;;8.50;99.90;;;;;;4919343;29;20215;-73
2021/03/14 12:59:55;;;;;;;1.38;0.77;;;8.50;99.90;;;;;;4919586;29;20344;-73
2021/03/14 13:02:22;;;;;;;0.80;0.80;;;8.50;99.90;;;;;;4918289;29;20234;-72
2021/03/14 13:04:48;;;;;;;0.80;0.80;;;8.40;99.90;;;;;;4919032;29;20211;-72
2021/03/14 13:07:15;;;;;;;0.60;0.60;;;8.40;99.90;;;;;;4919162;29;20245;-72
2021/03/14 13:09:41;;;;;;;0.60;0.60;;;8.40;99.90;;;;;;4919337;29;20734;-71
2021/03/14 13:12:08;;;;;;;0.70;0.70;;;8.40;99.90;;;;;;4919235;29;20234;-72
2021/03/14 13:14:36;;;;;;;1.30;0.80;;;8.40;99.90;;;;;;4919002;29;20229;-73
2021/03/14 13:17:02;;;;;;;2.08;1.02;;;8.50;99.90;;;;;;4918961;29;20214;-73
2021/03/14 13:19:29;;;;;;;1.08;1.08;;;8.60;99.90;;;;;;4917849;29;20217;-72
2021/03/14 13:21:55;;;;;;;0.82;0.82;;;8.60;99.90;;;;;;4919219;29;20250;-74
2021/03/14 13:24:23;;;;;;;3.88;1.00;;;8.60;99.90;;;;;;4918475;29;20206;-74
2021/03/14 13:26:49;;;;;;;1.13;1.05;;;8.60;99.90;;;;;;4918295;29;20721;-74
2021/03/14 13:29:15;;;;;;;1.08;1.08;;;8.50;99.90;;;;;;4918817;29;20258;-74
2021/03/14 13:31:42;;;;;;;1.08;0.98;;;8.40;99.90;;;;;;4918615;29;20226;-74
2021/03/14 13:34:08;;;;;;;3.40;1.02;;;8.40;99.90;;;;;;4917546;29;20680;-74
2021/03/14 13:36:34;;;;;;;3.08;1.35;;;8.50;99.90;;;;;;4919327;29;20555;-74
2021/03/14 13:39:00;;;;;;;1.80;1.27;;;8.50;99.90;;;;;;4918301;29;20211;-73
2021/03/14 13:41:28;;;;;;;1.75;1.48;;;8.70;99.90;;;;;;4918395;29;20238;-73
2021/03/14 13:43:55;;;;;;;1.17;1.15;;;8.80;99.90;;;;;;4917198;29;20207;-73
2021/03/14 13:46:21;;;;;;;4.60;1.13;;;9.00;99.90;;;;;;4917404;29;20223;-73
2021/03/14 13:48:48;;;;;;;1.38;1.33;;;9.20;99.90;;;;;;4914618;29;20310;-72
2021/03/14 13:51:15;;;;;;;4.45;1.40;;;9.30;99.90;;;;;;4918295;29;20222;-72
2021/03/14 13:53:41;;;;;;;1.58;1.48;;;9.40;99.90;;;;;;4905310;29;20222;-65
2021/03/14 13:56:08;;;;;;;4.13;2.30;;;9.50;99.90;;;;;;4913310;29;20203;-72
2021/03/14 13:58:36;;;;;;;6.18;4.25;;;9.50;99.90;;;;;;4900704;29;20211;-71
2021/03/14 14:01:04;;;;;;;3.10;1.90;;;9.50;99.90;;;;;;4917570;29;20245;-72
2021/03/14 14:03:31;;;;;;;2.25;2.15;;;9.50;99.90;;;;;;4917364;29;20557;-72
2021/03/14 14:05:57;;;;;;;1.48;1.23;;;9.50;99.90;;;;;;4916593;29;20240;-71
2021/03/14 14:08:23;;;;;;;2.25;1.52;;;9.30;99.90;;;;;;4917939;29;20622;-71
2021/03/14 14:10:50;;;;;;;1.50;1.40;;;9.30;99.90;;;;;;4918673;29;20230;-72
2021/03/14 14:13:16;;;;;;;3.72;3.30;;;9.20;99.90;;;;;;4917644;29;20211;-72
2021/03/14 14:15:43;;;;;;;2.15;1.45;;;9.20;99.90;;;;;;4918251;29;20480;-72
2021/03/14 14:18:10;;;;;;;3.45;2.72;;;9.10;99.90;;;;;;4917139;29;20225;-72
2021/03/14 14:20:40;;;;;;;1.83;1.77;;;9.00;99.90;;;;;;4917876;29;20234;-72
2021/03/14 14:23:06;;;;;;;2.40;1.58;;;9.00;99.90;;;;;;4918148;29;20545;-73
2021/03/14 14:25:32;;;;;;;1.55;1.40;;;8.90;99.90;;;;;;4913852;29;20308;-74
2021/03/14 14:28:00;;;;;;;5.05;2.10;;;8.90;99.90;;;;;;4905683;29;20616;-73
2021/03/14 14:30:29;;;;;;;1.40;1.40;;;8.80;99.90;;;;;;4904505;29;20309;-74
2021/03/14 14:32:57;;;;;;;3.90;1.60;;;8.80;99.90;;;;;;4908294;29;20549;-73
2021/03/14 14:35:24;;;;;;;1.23;1.10;;;8.80;99.90;;;;;;4921288;29;20203;-74
2021/03/14 14:37:50;;;;;;;1.50;1.02;;;8.70;99.90;;;;;;4925861;29;20785;-74
2021/03/14 14:40:17;;;;;;;1.30;1.20;;;8.60;99.90;;;;;;4928333;29;20210;-75
2021/03/14 14:42:43;;;;;;;2.05;1.30;;;8.50;99.90;;;;;;4921013;29;20211;-75
2021/03/14 14:45:10;;;;;;;2.17;0.93;;;8.50;99.90;;;;;;4917824;29;20571;-75
2021/03/14 14:47:36;;;;;;;1.00;1.00;;;8.50;99.90;;;;;;4912496;29;20258;-75
2021/03/14 14:50:04;;;;;;;1.20;1.20;;;8.50;99.90;;;;;;4922410;29;20211;-75
2021/03/14 14:52:30;;;;;;;4.90;2.28;;;8.40;99.90;;;;;;4923720;29;20285;-75
2021/03/14 14:54:57;;;;;;;1.10;1.10;;;8.40;99.90;;;;;;4923890;29;20309;-75
2021/03/14 14:57:23;;;;;;;2.08;1.42;;;8.30;99.90;;;;;;4921250;29;20210;-75
2021/03/14 14:59:49;;;;;;;2.13;1.58;;;8.30;99.90;;;;;;4918987;29;20237;-75
2021/03/14 15:02:15;;;;;;;1.42;1.13;;;8.20;99.90;;;;;;4920962;29;20584;-75
2021/03/14 15:04:42;;;;;;;2.50;1.00;;;8.20;99.90;;;;;;4919755;29;20199;-75
2021/03/14 15:07:09;;;;;;;1.33;1.23;;;8.10;99.90;;;;;;4922036;29;20226;-72
2021/03/14 15:09:35;;;;;;;1.30;1.17;;;8.10;99.90;;;;;;4917490;29;20203;-72
2021/03/14 15:12:01;;;;;;;1.85;1.08;;;8.00;99.90;;;;;;4915637;29;20234;-72
2021/03/14 15:14:27;;;;;;;1.88;1.00;;;8.00;99.90;;;;;;4917358;29;20675;-72
2021/03/14 15:16:53;;;;;;;5.50;1.27;;;7.90;99.90;;;;;;4912232;29;20207;-72
2021/03/14 15:19:20;;;;;;;1.48;0.90;;;7.90;99.90;;;;;;4913221;29;20211;-72
2021/03/14 15:21:46;;;;;;;1.70;0.77;;;7.80;99.90;;;;;;4915108;29;20234;-72
2021/03/14 15:24:17;;;;;;;4.00;1.60;;;7.80;99.90;;;;;;4918405;29;20219;-73
2021/03/14 15:26:43;;;;;;;1.05;0.95;;;7.70;99.90;;;;;;4918282;29;20223;-73
2021/03/14 15:29:09;;;;;;;1.83;1.10;;;7.60;99.90;;;;;;4916936;29;20734;-72
2021/03/14 15:31:35;;;;;;;3.97;1.10;;;7.60;99.90;;;;;;4916777;29;20238;-72
2021/03/14 15:34:02;;;;;;;4.13;1.75;;;7.50;99.90;;;;;;4911746;29;20223;-73
2021/03/14 15:36:28;;;;;;;4.20;1.40;;;7.50;99.90;;;;;;4911836;29;20255;-72
2021/03/14 15:38:55;;;;;;;4.15;2.05;;;7.50;99.90;;;;;;4916959;29;20214;-73
2021/03/14 15:41:22;;;;;;;2.22;2.00;;;7.50;99.90;;;;;;4916930;29;20230;-72
2021/03/14 15:43:48;;;;;;;3.75;1.63;;;7.50;99.90;;;;;;4898079;29;20231;-73
2021/03/14 15:46:14;;;;;;;4.38;1.67;;;7.40;99.90;;;;;;4897968;29;20231;-73
2021/03/14 15:48:40;;;;;;;3.10;1.63;;;7.50;99.90;;;;;;4897826;29;20218;-73
2021/03/14 15:51:06;;;;;;;1.60;1.50;;;7.50;99.90;;;;;;4907370;29;20239;-73
2021/03/14 15:53:33;;;;;;;2.58;1.30;;;7.50;99.90;;;;;;4914170;29;20202;-73
2021/03/14 15:55:59;;;;;;;2.78;2.58;;;7.50;99.90;;;;;;4916971;29;20240;-73
2021/03/14 15:58:26;;;;;;;2.83;1.40;;;7.60;99.90;;;;;;4904999;29;20207;-73
2021/03/14 16:00:52;;;;;;;1.13;1.13;;;7.60;99.90;;;;;;4908800;29;20265;-73
2021/03/14 16:03:18;;;;;;;1.40;1.20;;;7.60;99.90;;;;;;4905220;29;20215;-73
2021/03/14 16:05:44;;;;;;;4.85;1.80;;;7.50;99.90;;;;;;4910173;29;20216;-73
2021/03/14 16:08:11;;;;;;;1.25;0.82;;;7.50;99.90;;;;;;4907258;29;20214;-73
2021/03/14 16:10:37;;;;;;;0.55;0.55;;;7.40;99.90;;;;;;4912618;29;20226;-73
2021/03/14 16:13:03;;;;;;;1.10;0.88;;;7.40;99.90;;;;;;4915512;29;20290;-73
2021/03/14 16:15:30;;;;;;;5.85;4.45;;;7.40;99.90;;;;;;4916393;29;20206;-73
2021/03/14 16:17:56;;;;;;;1.70;1.25;;;7.30;99.90;;;;;;4915252;29;20206;-73
2021/03/14 16:20:23;;;;;;;1.23;0.70;;;7.30;99.90;;;;;;4914418;29;20203;-74
2021/03/14 16:22:49;;;;;;;1.55;0.52;;;7.20;99.90;;;;;;4915065;29;20217;-73
2021/03/14 16:25:16;;;;;;;0.80;0.77;;;7.20;99.90;;;;;;4913530;29;20301;-73
2021/03/14 16:27:42;;;;;;;1.20;1.20;;;7.10;99.90;;;;;;4908618;29;20309;-74
2021/03/14 16:30:09;;;;;;;1.73;1.63;;;7.00;99.90;;;;;;4907078;29;20556;-73
2021/03/14 16:32:36;;;;;;;3.38;0.90;;;7.00;99.90;;;;;;4896085;29;20203;-73
2021/03/14 16:35:04;;;;;;;1.40;1.30;;;6.90;99.90;;;;;;4897339;29;20240;-72
2021/03/14 16:37:30;;;;;;;1.85;1.33;;;6.90;99.90;;;;;;4916098;29;20209;-73
2021/03/14 16:39:56;;;;;;;1.58;1.48;;;6.80;99.90;;;;;;4915545;29;20206;-73
2021/03/14 16:42:22;;;;;;;1.52;1.30;;;6.80;99.90;;;;;;4912366;29;20282;-72
2021/03/14 16:44:49;;;;;;;1.67;1.63;;;6.80;99.90;;;;;;4907522;29;20263;-72
2021/03/14 16:47:16;;;;;;;3.25;2.60;;;6.80;99.90;;;;;;4914843;29;20233;-72
2021/03/14 16:49:43;;;;;;;4.40;2.83;;;6.80;99.90;;;;;;4915165;29;20238;-72
2021/03/14 16:52:10;;;;;;;1.63;1.02;;;6.80;99.90;;;;;;4915004;29;20227;-72
2021/03/14 16:54:36;;;;;;;7.28;4.00;;;6.80;99.90;;;;;;4915886;29;20241;-72
2021/03/14 16:57:03;;;;;;;3.92;2.55;;;6.80;99.90;;;;;;4910400;29;20202;-72
2021/03/14 16:59:29;;;;;;;7.22;2.90;;;6.70;99.90;;;;;;4906900;29;20207;-73
2021/03/14 17:01:55;;;;;;;18.23;9.23;;;6.70;99.90;;;;;;4912732;29;20278;-72
2021/03/14 17:04:21;;;;;;;8.60;3.75;;;6.60;99.90;;;;;;4914099;29;20664;-72
2021/03/14 17:06:49;;;;;;;1.20;1.10;;;6.60;99.90;;;;;;4914544;29;20805;-72
2021/03/14 17:09:15;;;;;;;3.63;3.33;;;6.50;99.90;;;;;;4911838;29;20206;-72
2021/03/14 17:11:41;;;;;;;1.85;1.75;;;6.50;99.90;;;;;;4914915;29;20249;-72
2021/03/14 17:14:07;;;;;;;5.00;2.28;;;6.40;99.90;;;;;;4914671;29;20242;-72
2021/03/14 17:16:34;;;;;;;8.75;2.58;;;6.40;99.90;;;;;;4915634;29;20206;-72
2021/03/14 17:19:00;;;;;;;2.60;2.40;;;6.40;99.90;;;;;;4914668;29;20198;-72
2021/03/14 17:21:26;;;;;;;2.83;2.63;;;6.40;99.90;;;;;;4914452;29;20238;-72
2021/03/14 17:23:53;;;;;;;3.00;2.90;;;6.40;99.90;;;;;;4914117;29;20218;-72
2021/03/14 17:26:20;;;;;;;3.75;1.85;;;6.40;99.90;;;;;;4914896;29;20234;-72
2021/03/14 17:28:46;;;;;;;1.77;1.67;;;6.40;99.90;;;;;;4916646;29;20254;-72
2021/03/14 17:31:12;;;;;;;3.90;1.90;;;6.40;99.90;;;;;;4914874;29;20231;-72
2021/03/14 17:33:39;;;;;;;3.33;2.30;;;6.30;99.90;;;;;;4917267;29;20308;-72
2021/03/14 17:36:06;;;;;;;3.15;2.90;;;6.30;99.90;;;;;;4918085;29;20206;-72
2021/03/14 17:38:32;;;;;;;3.10;2.90;;;6.30;99.90;;;;;;4910222;29;20211;-72
2021/03/14 17:40:59;;;;;;;3.38;3.10;;;6.20;99.90;;;;;;4911878;29;20521;-72
2021/03/14 17:43:25;;;;;;;4.10;3.80;;;6.20;99.90;;;;;;4918091;29;20341;-71
2021/03/14 17:45:51;;;;;;;3.55;3.33;;;6.20;99.90;;;;;;4917747;29;20223;-72
2021/03/14 17:48:18;;;;;;;5.70;2.70;;;6.10;99.90;;;;;;4917238;29;20210;-72
2021/03/14 17:50:44;;;;;;;3.55;3.33;;;6.10;99.90;;;;;;4918159;29;20239;-72
2021/03/14 17:53:11;;;;;;;7.20;3.78;;;6.10;99.90;;;;;;4917779;29;20203;-73
2021/03/14 17:55:37;;;;;;;4.35;3.95;;;6.00;99.90;;;;;;4918802;29;20269;-72
2021/03/14 17:58:05;;;;;;;4.75;4.20;;;6.00;99.90;;;;;;4917761;29;20198;-72
2021/03/14 18:00:31;;;;;;;3.42;3.22;;;6.00;99.90;;;;;;4915686;29;20228;-72
2021/03/14 18:02:57;;;;;;;4.57;3.35;;;6.00;99.90;;;;;;4915891;29;20191;-74